sensor_id;sensor_type;location;lat;lon;timestamp;temperature;humidity
6018;DHT22;3037;51.068;13.780;2022-08-21T00:02:20;18.60;99.90
6018;DHT22;3037;51.068;13.780;2022-08-21T00:04:47;18.60;99.90
6018;DHT22;3037;51.068;13.780;2022-08-21T00:07:13;18.70;99.90
6018;DHT22;3037;51.068;13.780;2022-08-21T00:09:39;18.70;99.90
6018;DHT22;3037;51.068;13.780;2022-08-21T00:12:05;18.80;99.90
6018;DHT22;3037;51.068;13.780;2022-08-21T00:14:31;18.80;99.90
6018;DHT22;3037;51.068;13.780;2022-08-21T00:16:57;18.80;99.90
6018;DHT22;3037;51.068;13.780;2022-08-21T00:19:23;18.80;99.90
6018;DHT22;3037;51.068;13.780;2022-08-21T00:21:53;18.70;99.90
6018;DHT22;3037;51.068;13.780;2022-08-21T00:24:20;18.70;99.90
6018;DHT22;3037;51.068;13.780;2022-08-21T00:26:46;18.70;99.90
6018;DHT22;3037;51.068;13.780;2022-08-21T00:29:12;18.70;99.90
6018;DHT22;3037;51.068;13.780;2022-08-21T00:31:39;18.70;99.90
6018;DHT22;3037;51.068;13.780;2022-08-21T00:34:05;18.60;99.90
6018;DHT22;3037;51.068;13.780;2022-08-21T00:36:33;18.70;99.90
6018;DHT22;3037;51.068;13.780;2022-08-21T00:38:59;18.70;99.90
6018;DHT22;3037;51.068;13.780;2022-08-21T00:41:25;18.70;99.90
6018;DHT22;3037;51.068;13.780;2022-08-21T00:43:50;18.70;99.90
6018;DHT22;3037;51.068;13.780;2022-08-21T00:46:17;18.70;99.90
6018;DHT22;3037;51.068;13.780;2022-08-21T00:48:42;18.70;99.90
6018;DHT22;3037;51.068;13.780;2022-08-21T00:51:15;18.70;99.90
6018;DHT22;3037;51.068;13.780;2022-08-21T00:53:45;18.70;99.90
6018;DHT22;3037;51.068;13.780;2022-08-21T00:56:12;18.70;99.90
6018;DHT22;3037;51.068;13.780;2022-08-21T00:58:40;18.80;99.90
6018;DHT22;3037;51.068;13.780;2022-08-21T01:01:08;18.80;99.90
6018;DHT22;3037;51.068;13.780;2022-08-21T01:03:34;18.80;99.90
6018;DHT22;3037;51.068;13.780;2022-08-21T01:06:00;18.80;99.90
6018;DHT22;3037;51.068;13.780;2022-08-21T01:08:27;18.80;99.90
6018;DHT22;3037;51.068;13.780;2022-08-21T01:10:54;18.80;99.90
6018;DHT22;3037;51.068;13.780;2022-08-21T01:13:21;18.80;99.90
6018;DHT22;3037;51.068;13.780;2022-08-21T01:15:50;18.80;99.90
6018;DHT22;3037;51.068;13.780;2022-08-21T01:18:18;18.70;99.90
6018;DHT22;3037;51.068;13.780;2022-08-21T01:23:37;18.80;99.90
6018;DHT22;3037;51.068;13.780;2022-08-21T01:26:04;18.70;99.90
6018;DHT22;3037;51.068;13.780;2022-08-21T01:28:33;18.70;99.90
6018;DHT22;3037;51.068;13.780;2022-08-21T01:31:01;18.70;99.90
6018;DHT22;3037;51.068;13.780;2022-08-21T01:33:28;18.70;99.90
6018;DHT22;3037;51.068;13.780;2022-08-21T01:35:53;18.60;99.90
6018;DHT22;3037;51.068;13.780;2022-08-21T01:38:19;18.60;99.90
6018;DHT22;3037;51.068;13.780;2022-08-21T01:40:45;18.60;99.90
6018;DHT22;3037;51.068;13.780;2022-08-21T01:43:11;18.60;99.90
6018;DHT22;3037;51.068;13.780;2022-08-21T01:45:36;18.50;99.90
6018;DHT22;3037;51.068;13.780;2022-08-21T01:48:02;18.50;99.90
6018;DHT22;3037;51.068;13.780;2022-08-21T01:50:29;18.50;99.90
6018;DHT22;3037;51.068;13.780;2022-08-21T01:52:54;18.40;99.90
6018;DHT22;3037;51.068;13.780;2022-08-21T01:55:23;18.40;99.90
6018;DHT22;3037;51.068;13.780;2022-08-21T01:57:49;18.40;99.90
6018;DHT22;3037;51.068;13.780;2022-08-21T02:00:18;18.40;99.90
6018;DHT22;3037;51.068;13.780;2022-08-21T02:02:44;18.40;99.90
6018;DHT22;3037;51.068;13.780;2022-08-21T02:05:11;18.20;99.90
6018;DHT22;3037;51.068;13.780;2022-08-21T02:07:43;18.20;99.90
6018;DHT22;3037;51.068;13.780;2022-08-21T02:10:13;18.20;99.90
6018;DHT22;3037;51.068;13.780;2022-08-21T02:12:40;18.20;99.90
6018;DHT22;3037;51.068;13.780;2022-08-21T02:15:07;18.20;99.90
6018;DHT22;3037;51.068;13.780;2022-08-21T02:17:46;18.20;99.90
6018;DHT22;3037;51.068;13.780;2022-08-21T02:20:25;18.10;99.90
6018;DHT22;3037;51.068;13.780;2022-08-21T02:22:52;18.20;99.90
6018;DHT22;3037;51.068;13.780;2022-08-21T02:25:19;18.20;99.90
6018;DHT22;3037;51.068;13.780;2022-08-21T02:27:46;18.10;99.90
6018;DHT22;3037;51.068;13.780;2022-08-21T02:30:25;18.10;99.90
6018;DHT22;3037;51.068;13.780;2022-08-21T02:32:51;18.10;99.90
6018;DHT22;3037;51.068;13.780;2022-08-21T02:35:17;18.10;99.90
6018;DHT22;3037;51.068;13.780;2022-08-21T02:37:52;18.00;99.90
6018;DHT22;3037;51.068;13.780;2022-08-21T02:40:22;18.00;99.90
6018;DHT22;3037;51.068;13.780;2022-08-21T02:42:47;18.00;99.90
6018;DHT22;3037;51.068;13.780;2022-08-21T02:45:14;18.10;99.90
6018;DHT22;3037;51.068;13.780;2022-08-21T02:47:47;18.00;99.90
6018;DHT22;3037;51.068;13.780;2022-08-21T02:50:13;18.00;99.90
6018;DHT22;3037;51.068;13.780;2022-08-21T02:52:38;18.00;99.90
6018;DHT22;3037;51.068;13.780;2022-08-21T02:55:05;18.10;99.90
6018;DHT22;3037;51.068;13.780;2022-08-21T02:57:31;18.10;99.90
6018;DHT22;3037;51.068;13.780;2022-08-21T02:59:57;18.10;99.90
6018;DHT22;3037;51.068;13.780;2022-08-21T03:02:23;18.10;99.90
6018;DHT22;3037;51.068;13.780;2022-08-21T03:04:48;18.00;99.90
6018;DHT22;3037;51.068;13.780;2022-08-21T03:07:14;18.00;99.90
6018;DHT22;3037;51.068;13.780;2022-08-21T03:09:40;18.10;99.90
6018;DHT22;3037;51.068;13.780;2022-08-21T03:12:06;18.10;99.90
6018;DHT22;3037;51.068;13.780;2022-08-21T03:14:31;18.00;99.90
6018;DHT22;3037;51.068;13.780;2022-08-21T03:16:57;18.00;99.90
6018;DHT22;3037;51.068;13.780;2022-08-21T03:19:23;18.00;99.90
6018;DHT22;3037;51.068;13.780;2022-08-21T03:21:48;18.00;99.90
6018;DHT22;3037;51.068;13.780;2022-08-21T03:24:14;18.00;99.90
6018;DHT22;3037;51.068;13.780;2022-08-21T03:26:39;17.90;99.90
6018;DHT22;3037;51.068;13.780;2022-08-21T03:29:05;18.00;99.90
6018;DHT22;3037;51.068;13.780;2022-08-21T03:31:32;18.00;99.90
6018;DHT22;3037;51.068;13.780;2022-08-21T03:33:58;18.00;99.90
6018;DHT22;3037;51.068;13.780;2022-08-21T03:36:24;18.00;99.90
6018;DHT22;3037;51.068;13.780;2022-08-21T03:38:49;18.10;99.90
6018;DHT22;3037;51.068;13.780;2022-08-21T03:41:15;18.10;99.90
6018;DHT22;3037;51.068;13.780;2022-08-21T03:43:41;18.20;99.90
6018;DHT22;3037;51.068;13.780;2022-08-21T03:46:07;18.20;99.90
6018;DHT22;3037;51.068;13.780;2022-08-21T03:48:34;18.20;99.90
6018;DHT22;3037;51.068;13.780;2022-08-21T03:51:00;18.10;99.90
6018;DHT22;3037;51.068;13.780;2022-08-21T03:53:26;18.00;99.90
6018;DHT22;3037;51.068;13.780;2022-08-21T03:55:52;18.00;99.90
6018;DHT22;3037;51.068;13.780;2022-08-21T03:58:21;18.00;99.90
6018;DHT22;3037;51.068;13.780;2022-08-21T04:00:48;17.90;99.90
6018;DHT22;3037;51.068;13.780;2022-08-21T04:03:15;18.00;99.90
6018;DHT22;3037;51.068;13.780;2022-08-21T04:05:41;17.90;99.90
6018;DHT22;3037;51.068;13.780;2022-08-21T04:08:07;17.90;99.90
6018;DHT22;3037;51.068;13.780;2022-08-21T04:10:35;17.80;99.90
6018;DHT22;3037;51.068;13.780;2022-08-21T04:13:01;17.80;99.90
6018;DHT22;3037;51.068;13.780;2022-08-21T04:15:27;17.70;99.90
6018;DHT22;3037;51.068;13.780;2022-08-21T04:17:53;17.70;99.90
6018;DHT22;3037;51.068;13.780;2022-08-21T04:20:19;17.70;99.90
6018;DHT22;3037;51.068;13.780;2022-08-21T04:22:46;17.60;99.90
6018;DHT22;3037;51.068;13.780;2022-08-21T04:25:13;17.70;99.90
6018;DHT22;3037;51.068;13.780;2022-08-21T04:27:39;17.70;99.90
6018;DHT22;3037;51.068;13.780;2022-08-21T04:30:09;17.70;99.90
6018;DHT22;3037;51.068;13.780;2022-08-21T04:32:36;17.70;99.90
6018;DHT22;3037;51.068;13.780;2022-08-21T04:35:06;17.60;99.90
6018;DHT22;3037;51.068;13.780;2022-08-21T04:37:32;17.60;99.90
6018;DHT22;3037;51.068;13.780;2022-08-21T04:39:58;17.60;99.90
6018;DHT22;3037;51.068;13.780;2022-08-21T04:42:24;17.70;99.90
6018;DHT22;3037;51.068;13.780;2022-08-21T04:44:51;17.80;99.90
6018;DHT22;3037;51.068;13.780;2022-08-21T04:47:17;17.70;99.90
6018;DHT22;3037;51.068;13.780;2022-08-21T04:49:43;17.70;99.90
6018;DHT22;3037;51.068;13.780;2022-08-21T04:52:09;17.80;99.90
6018;DHT22;3037;51.068;13.780;2022-08-21T04:54:36;17.80;99.90
6018;DHT22;3037;51.068;13.780;2022-08-21T04:57:05;17.80;99.90
6018;DHT22;3037;51.068;13.780;2022-08-21T04:59:39;17.80;99.90
6018;DHT22;3037;51.068;13.780;2022-08-21T05:02:06;17.90;99.90
6018;DHT22;3037;51.068;13.780;2022-08-21T05:04:35;17.90;99.90
6018;DHT22;3037;51.068;13.780;2022-08-21T05:07:05;17.90;99.90
6018;DHT22;3037;51.068;13.780;2022-08-21T05:09:32;18.00;99.90
6018;DHT22;3037;51.068;13.780;2022-08-21T05:11:57;18.00;99.90
6018;DHT22;3037;51.068;13.780;2022-08-21T05:14:23;18.10;99.90
6018;DHT22;3037;51.068;13.780;2022-08-21T05:16:49;18.20;99.90
6018;DHT22;3037;51.068;13.780;2022-08-21T05:19:14;18.10;99.90
6018;DHT22;3037;51.068;13.780;2022-08-21T05:21:42;18.10;99.90
6018;DHT22;3037;51.068;13.780;2022-08-21T05:24:09;18.10;99.90
6018;DHT22;3037;51.068;13.780;2022-08-21T05:26:35;18.10;99.90
6018;DHT22;3037;51.068;13.780;2022-08-21T05:29:02;18.20;99.90
6018;DHT22;3037;51.068;13.780;2022-08-21T05:31:28;18.20;99.90
6018;DHT22;3037;51.068;13.780;2022-08-21T05:33:54;18.20;99.90
6018;DHT22;3037;51.068;13.780;2022-08-21T05:36:19;18.30;99.90
6018;DHT22;3037;51.068;13.780;2022-08-21T05:38:45;18.50;99.90
6018;DHT22;3037;51.068;13.780;2022-08-21T05:41:11;18.50;99.90
6018;DHT22;3037;51.068;13.780;2022-08-21T05:43:36;18.60;99.90
6018;DHT22;3037;51.068;13.780;2022-08-21T05:46:03;18.60;99.90
6018;DHT22;3037;51.068;13.780;2022-08-21T05:48:30;18.90;99.90
6018;DHT22;3037;51.068;13.780;2022-08-21T05:50:56;18.90;99.90
6018;DHT22;3037;51.068;13.780;2022-08-21T05:53:23;18.80;99.90
6018;DHT22;3037;51.068;13.780;2022-08-21T05:55:49;19.00;99.90
6018;DHT22;3037;51.068;13.780;2022-08-21T05:58:19;19.20;99.90
6018;DHT22;3037;51.068;13.780;2022-08-21T06:00:47;19.30;99.90
6018;DHT22;3037;51.068;13.780;2022-08-21T06:03:18;19.30;99.90
6018;DHT22;3037;51.068;13.780;2022-08-21T06:05:44;19.40;99.90
6018;DHT22;3037;51.068;13.780;2022-08-21T06:08:11;19.40;99.90
6018;DHT22;3037;51.068;13.780;2022-08-21T06:10:37;19.40;99.90
6018;DHT22;3037;51.068;13.780;2022-08-21T06:13:03;19.40;99.90
6018;DHT22;3037;51.068;13.780;2022-08-21T06:15:29;19.40;99.90
6018;DHT22;3037;51.068;13.780;2022-08-21T06:17:55;19.30;99.90
6018;DHT22;3037;51.068;13.780;2022-08-21T06:20:21;19.40;99.90
6018;DHT22;3037;51.068;13.780;2022-08-21T06:22:47;19.40;99.90
6018;DHT22;3037;51.068;13.780;2022-08-21T06:25:12;19.30;99.90
6018;DHT22;3037;51.068;13.780;2022-08-21T06:27:38;19.40;99.90
6018;DHT22;3037;51.068;13.780;2022-08-21T06:30:04;19.50;99.90
6018;DHT22;3037;51.068;13.780;2022-08-21T06:32:30;19.50;99.90
6018;DHT22;3037;51.068;13.780;2022-08-21T06:34:56;19.50;99.90
6018;DHT22;3037;51.068;13.780;2022-08-21T06:37:22;19.50;99.90
6018;DHT22;3037;51.068;13.780;2022-08-21T06:39:47;19.40;99.90
6018;DHT22;3037;51.068;13.780;2022-08-21T06:42:15;19.50;99.90
6018;DHT22;3037;51.068;13.780;2022-08-21T06:44:41;19.60;99.90
6018;DHT22;3037;51.068;13.780;2022-08-21T06:47:07;19.70;99.90
6018;DHT22;3037;51.068;13.780;2022-08-21T06:49:33;19.70;99.90
6018;DHT22;3037;51.068;13.780;2022-08-21T06:51:59;19.80;99.90
6018;DHT22;3037;51.068;13.780;2022-08-21T06:54:25;19.90;99.90
6018;DHT22;3037;51.068;13.780;2022-08-21T06:56:50;19.90;99.90
6018;DHT22;3037;51.068;13.780;2022-08-21T06:59:16;20.10;99.90
6018;DHT22;3037;51.068;13.780;2022-08-21T07:01:41;20.20;99.90
6018;DHT22;3037;51.068;13.780;2022-08-21T07:04:07;20.30;99.90
6018;DHT22;3037;51.068;13.780;2022-08-21T07:06:33;20.30;99.90
6018;DHT22;3037;51.068;13.780;2022-08-21T07:08:58;20.30;99.90
6018;DHT22;3037;51.068;13.780;2022-08-21T07:11:25;20.30;99.90
6018;DHT22;3037;51.068;13.780;2022-08-21T07:13:51;20.20;99.90
6018;DHT22;3037;51.068;13.780;2022-08-21T07:16:18;20.30;99.90
6018;DHT22;3037;51.068;13.780;2022-08-21T07:18:44;20.50;99.90
6018;DHT22;3037;51.068;13.780;2022-08-21T07:21:10;20.60;99.90
6018;DHT22;3037;51.068;13.780;2022-08-21T07:23:40;20.60;99.90
6018;DHT22;3037;51.068;13.780;2022-08-21T07:26:07;20.70;99.90
6018;DHT22;3037;51.068;13.780;2022-08-21T07:28:33;21.00;99.90
6018;DHT22;3037;51.068;13.780;2022-08-21T07:31:00;21.40;99.90
6018;DHT22;3037;51.068;13.780;2022-08-21T07:33:27;21.30;99.90
6018;DHT22;3037;51.068;13.780;2022-08-21T07:35:53;21.10;99.90
6018;DHT22;3037;51.068;13.780;2022-08-21T07:38:19;21.30;99.90
6018;DHT22;3037;51.068;13.780;2022-08-21T07:40:46;21.30;99.90
6018;DHT22;3037;51.068;13.780;2022-08-21T07:43:12;21.40;99.90
6018;DHT22;3037;51.068;13.780;2022-08-21T07:45:37;21.40;99.90
6018;DHT22;3037;51.068;13.780;2022-08-21T07:48:04;21.30;99.90
6018;DHT22;3037;51.068;13.780;2022-08-21T07:50:29;21.20;99.90
6018;DHT22;3037;51.068;13.780;2022-08-21T07:52:55;21.30;99.90
6018;DHT22;3037;51.068;13.780;2022-08-21T07:55:21;21.30;99.90
6018;DHT22;3037;51.068;13.780;2022-08-21T07:57:47;21.20;99.90
6018;DHT22;3037;51.068;13.780;2022-08-21T08:00:19;21.00;99.90
6018;DHT22;3037;51.068;13.780;2022-08-21T08:02:47;20.90;99.90
6018;DHT22;3037;51.068;13.780;2022-08-21T08:05:16;21.00;99.90
6018;DHT22;3037;51.068;13.780;2022-08-21T08:07:42;21.10;99.90
6018;DHT22;3037;51.068;13.780;2022-08-21T08:10:09;21.40;99.90
6018;DHT22;3037;51.068;13.780;2022-08-21T08:12:36;21.30;99.90
6018;DHT22;3037;51.068;13.780;2022-08-21T08:15:05;21.60;99.90
6018;DHT22;3037;51.068;13.780;2022-08-21T08:17:31;21.70;99.90
6018;DHT22;3037;51.068;13.780;2022-08-21T08:19:57;22.00;99.90
6018;DHT22;3037;51.068;13.780;2022-08-21T08:22:23;22.30;99.90
6018;DHT22;3037;51.068;13.780;2022-08-21T08:24:50;22.40;99.90
6018;DHT22;3037;51.068;13.780;2022-08-21T08:27:17;22.70;99.90
6018;DHT22;3037;51.068;13.780;2022-08-21T08:29:43;22.50;99.90
6018;DHT22;3037;51.068;13.780;2022-08-21T08:32:09;22.60;99.90
6018;DHT22;3037;51.068;13.780;2022-08-21T08:34:36;22.40;99.90
6018;DHT22;3037;51.068;13.780;2022-08-21T08:37:03;22.90;99.90
6018;DHT22;3037;51.068;13.780;2022-08-21T08:39:29;23.00;99.90
6018;DHT22;3037;51.068;13.780;2022-08-21T08:41:59;23.00;99.90
6018;DHT22;3037;51.068;13.780;2022-08-21T08:44:27;23.30;99.90
6018;DHT22;3037;51.068;13.780;2022-08-21T08:46:52;23.60;99.90
6018;DHT22;3037;51.068;13.780;2022-08-21T08:49:35;23.90;99.90
6018;DHT22;3037;51.068;13.780;2022-08-21T08:52:18;24.00;99.90
6018;DHT22;3037;51.068;13.780;2022-08-21T08:54:55;23.70;99.90
6018;DHT22;3037;51.068;13.780;2022-08-21T08:57:24;23.40;99.90
6018;DHT22;3037;51.068;13.780;2022-08-21T08:59:52;23.10;99.90
6018;DHT22;3037;51.068;13.780;2022-08-21T09:02:20;23.20;99.90
6018;DHT22;3037;51.068;13.780;2022-08-21T09:04:49;23.20;99.90
6018;DHT22;3037;51.068;13.780;2022-08-21T09:07:40;23.30;99.90
6018;DHT22;3037;51.068;13.780;2022-08-21T09:10:18;23.20;99.90
6018;DHT22;3037;51.068;13.780;2022-08-21T09:23:29;23.80;99.90
6018;DHT22;3037;51.068;13.780;2022-08-21T09:26:17;23.40;99.90
6018;DHT22;3037;51.068;13.780;2022-08-21T09:28:43;23.20;99.90
6018;DHT22;3037;51.068;13.780;2022-08-21T09:31:21;23.30;99.90
6018;DHT22;3037;51.068;13.780;2022-08-21T09:33:47;23.90;99.90
6018;DHT22;3037;51.068;13.780;2022-08-21T09:36:24;24.50;99.90
6018;DHT22;3037;51.068;13.780;2022-08-21T09:38:54;24.10;99.90
6018;DHT22;3037;51.068;13.780;2022-08-21T09:41:29;24.40;99.90
6018;DHT22;3037;51.068;13.780;2022-08-21T09:43:56;24.60;99.90
6018;DHT22;3037;51.068;13.780;2022-08-21T09:46:27;24.30;99.90
6018;DHT22;3037;51.068;13.780;2022-08-21T09:48:55;24.00;99.90
6018;DHT22;3037;51.068;13.780;2022-08-21T09:51:26;24.10;99.90
6018;DHT22;3037;51.068;13.780;2022-08-21T09:54:09;23.70;99.90
6018;DHT22;3037;51.068;13.780;2022-08-21T09:56:39;24.20;99.90
6018;DHT22;3037;51.068;13.780;2022-08-21T09:59:28;23.70;99.90
6018;DHT22;3037;51.068;13.780;2022-08-21T10:01:58;23.50;99.90
6018;DHT22;3037;51.068;13.780;2022-08-21T10:04:30;23.80;99.90
6018;DHT22;3037;51.068;13.780;2022-08-21T10:07:15;23.70;99.90
6018;DHT22;3037;51.068;13.780;2022-08-21T10:09:41;24.00;99.90
6018;DHT22;3037;51.068;13.780;2022-08-21T10:12:16;23.50;99.90
6018;DHT22;3037;51.068;13.780;2022-08-21T10:14:54;23.50;99.90
6018;DHT22;3037;51.068;13.780;2022-08-21T10:20:03;23.80;99.90
6018;DHT22;3037;51.068;13.780;2022-08-21T10:25:31;24.00;99.90
6018;DHT22;3037;51.068;13.780;2022-08-21T10:28:14;24.50;99.90
6018;DHT22;3037;51.068;13.780;2022-08-21T10:30:52;24.40;99.90
6018;DHT22;3037;51.068;13.780;2022-08-21T10:43:55;24.80;96.80
6018;DHT22;3037;51.068;13.780;2022-08-21T10:51:56;24.40;97.50
6018;DHT22;3037;51.068;13.780;2022-08-21T10:54:38;24.40;97.30
6018;DHT22;3037;51.068;13.780;2022-08-21T10:57:18;24.60;96.00
6018;DHT22;3037;51.068;13.780;2022-08-21T10:59:55;24.30;98.80
6018;DHT22;3037;51.068;13.780;2022-08-21T11:05:03;24.90;95.20
6018;DHT22;3037;51.068;13.780;2022-08-21T11:07:36;25.20;95.90
6018;DHT22;3037;51.068;13.780;2022-08-21T11:10:10;24.90;95.00
6018;DHT22;3037;51.068;13.780;2022-08-21T11:12:44;25.10;96.80
6018;DHT22;3037;51.068;13.780;2022-08-21T11:18:31;25.30;96.30
6018;DHT22;3037;51.068;13.780;2022-08-21T11:21:09;25.80;94.10
6018;DHT22;3037;51.068;13.780;2022-08-21T11:23:53;25.60;92.30
6018;DHT22;3037;51.068;13.780;2022-08-21T11:26:30;26.20;90.90
6018;DHT22;3037;51.068;13.780;2022-08-21T11:29:07;26.80;84.20
6018;DHT22;3037;51.068;13.780;2022-08-21T11:31:42;27.00;84.00
6018;DHT22;3037;51.068;13.780;2022-08-21T11:37:04;27.30;68.20
6018;DHT22;3037;51.068;13.780;2022-08-21T11:40:01;27.90;57.60
6018;DHT22;3037;51.068;13.780;2022-08-21T11:42:41;27.80;58.60
6018;DHT22;3037;51.068;13.780;2022-08-21T11:45:36;28.30;56.60
6018;DHT22;3037;51.068;13.780;2022-08-21T11:50:58;27.90;54.90
6018;DHT22;3037;51.068;13.780;2022-08-21T11:53:47;27.80;57.50
6018;DHT22;3037;51.068;13.780;2022-08-21T11:56:32;27.90;48.80
6018;DHT22;3037;51.068;13.780;2022-08-21T11:59:20;27.80;43.00
6018;DHT22;3037;51.068;13.780;2022-08-21T12:01:48;27.50;46.30
6018;DHT22;3037;51.068;13.780;2022-08-21T12:04:26;28.50;40.00
6018;DHT22;3037;51.068;13.780;2022-08-21T12:06:53;28.60;39.60
6018;DHT22;3037;51.068;13.780;2022-08-21T12:12:13;28.30;36.10
6018;DHT22;3037;51.068;13.780;2022-08-21T12:14:49;28.70;34.00
6018;DHT22;3037;51.068;13.780;2022-08-21T12:17:23;29.00;29.70
6018;DHT22;3037;51.068;13.780;2022-08-21T12:20:01;29.20;27.50
6018;DHT22;3037;51.068;13.780;2022-08-21T12:22:40;28.90;24.50
6018;DHT22;3037;51.068;13.780;2022-08-21T12:25:09;28.20;26.70
6018;DHT22;3037;51.068;13.780;2022-08-21T12:27:53;28.10;24.40
6018;DHT22;3037;51.068;13.780;2022-08-21T12:32:58;27.80;19.50
6018;DHT22;3037;51.068;13.780;2022-08-21T12:35:38;27.60;19.80
6018;DHT22;3037;51.068;13.780;2022-08-21T12:40:56;28.40;18.80
6018;DHT22;3037;51.068;13.780;2022-08-21T12:43:33;29.20;15.50
6018;DHT22;3037;51.068;13.780;2022-08-21T12:45:59;28.50;14.60
6018;DHT22;3037;51.068;13.780;2022-08-21T12:48:36;28.40;16.70
6018;DHT22;3037;51.068;13.780;2022-08-21T12:51:14;28.60;16.20
6018;DHT22;3037;51.068;13.780;2022-08-21T12:53:51;27.90;14.20
6018;DHT22;3037;51.068;13.780;2022-08-21T12:56:19;28.10;15.20
6018;DHT22;3037;51.068;13.780;2022-08-21T12:58:51;27.40;15.20
6018;DHT22;3037;51.068;13.780;2022-08-21T13:01:31;27.40;14.10
6018;DHT22;3037;51.068;13.780;2022-08-21T13:04:10;27.30;17.70
6018;DHT22;3037;51.068;13.780;2022-08-21T13:06:40;27.10;17.60
6018;DHT22;3037;51.068;13.780;2022-08-21T13:09:10;27.50;13.00
6018;DHT22;3037;51.068;13.780;2022-08-21T13:11:37;27.80;12.60
6018;DHT22;3037;51.068;13.780;2022-08-21T13:14:05;27.00;13.30
6018;DHT22;3037;51.068;13.780;2022-08-21T13:16:35;26.80;14.50
6018;DHT22;3037;51.068;13.780;2022-08-21T13:19:05;26.50;13.80
6018;DHT22;3037;51.068;13.780;2022-08-21T13:21:39;26.20;15.20
6018;DHT22;3037;51.068;13.780;2022-08-21T13:24:24;26.00;12.40
6018;DHT22;3037;51.068;13.780;2022-08-21T13:26:51;25.80;14.90
6018;DHT22;3037;51.068;13.780;2022-08-21T13:29:19;25.40;14.00
6018;DHT22;3037;51.068;13.780;2022-08-21T13:31:53;25.20;18.10
6018;DHT22;3037;51.068;13.780;2022-08-21T13:34:29;25.20;18.50
6018;DHT22;3037;51.068;13.780;2022-08-21T13:36:58;25.20;20.10
6018;DHT22;3037;51.068;13.780;2022-08-21T13:41:57;24.80;19.60
6018;DHT22;3037;51.068;13.780;2022-08-21T13:44:44;24.80;19.00
6018;DHT22;3037;51.068;13.780;2022-08-21T13:47:13;24.90;19.60
6018;DHT22;3037;51.068;13.780;2022-08-21T13:49:42;24.90;19.10
6018;DHT22;3037;51.068;13.780;2022-08-21T13:52:20;24.80;19.60
6018;DHT22;3037;51.068;13.780;2022-08-21T13:55:08;24.80;17.90
6018;DHT22;3037;51.068;13.780;2022-08-21T13:57:34;25.00;17.30
6018;DHT22;3037;51.068;13.780;2022-08-21T14:00:34;24.90;18.90
6018;DHT22;3037;51.068;13.780;2022-08-21T14:03:04;25.00;19.20
6018;DHT22;3037;51.068;13.780;2022-08-21T14:05:34;25.20;21.70
6018;DHT22;3037;51.068;13.780;2022-08-21T14:08:05;25.20;19.70
6018;DHT22;3037;51.068;13.780;2022-08-21T14:10:31;25.30;18.90
6018;DHT22;3037;51.068;13.780;2022-08-21T14:13:05;25.40;20.10
6018;DHT22;3037;51.068;13.780;2022-08-21T14:15:34;25.60;19.40
6018;DHT22;3037;51.068;13.780;2022-08-21T14:18:16;26.00;19.50
6018;DHT22;3037;51.068;13.780;2022-08-21T14:20:42;25.80;18.90
6018;DHT22;3037;51.068;13.780;2022-08-21T14:23:08;25.90;18.20
6018;DHT22;3037;51.068;13.780;2022-08-21T14:25:41;26.00;19.50
6018;DHT22;3037;51.068;13.780;2022-08-21T14:28:19;25.90;19.60
6018;DHT22;3037;51.068;13.780;2022-08-21T14:30:48;25.90;21.30
6018;DHT22;3037;51.068;13.780;2022-08-21T14:33:36;26.00;19.90
6018;DHT22;3037;51.068;13.780;2022-08-21T14:36:02;25.90;18.60
6018;DHT22;3037;51.068;13.780;2022-08-21T14:38:28;25.60;19.70
6018;DHT22;3037;51.068;13.780;2022-08-21T14:41:04;25.90;19.30
6018;DHT22;3037;51.068;13.780;2022-08-21T14:43:32;25.70;18.70
6018;DHT22;3037;51.068;13.780;2022-08-21T14:45:57;25.50;19.50
6018;DHT22;3037;51.068;13.780;2022-08-21T14:48:23;25.40;18.90
6018;DHT22;3037;51.068;13.780;2022-08-21T14:50:49;25.40;19.60
6018;DHT22;3037;51.068;13.780;2022-08-21T14:53:15;25.50;21.40
6018;DHT22;3037;51.068;13.780;2022-08-21T14:55:41;25.50;20.90
6018;DHT22;3037;51.068;13.780;2022-08-21T14:58:25;25.30;20.50
6018;DHT22;3037;51.068;13.780;2022-08-21T15:00:52;25.20;17.10
6018;DHT22;3037;51.068;13.780;2022-08-21T15:03:19;25.40;19.00
6018;DHT22;3037;51.068;13.780;2022-08-21T15:05:47;25.60;18.30
6018;DHT22;3037;51.068;13.780;2022-08-21T15:08:13;26.10;18.30
6018;DHT22;3037;51.068;13.780;2022-08-21T15:10:38;26.40;19.80
6018;DHT22;3037;51.068;13.780;2022-08-21T15:13:05;26.20;16.90
6018;DHT22;3037;51.068;13.780;2022-08-21T15:15:36;26.50;15.20
6018;DHT22;3037;51.068;13.780;2022-08-21T15:18:03;26.30;14.60
6018;DHT22;3037;51.068;13.780;2022-08-21T15:20:29;26.10;15.50
6018;DHT22;3037;51.068;13.780;2022-08-21T15:22:54;26.30;14.80
6018;DHT22;3037;51.068;13.780;2022-08-21T15:25:20;26.30;15.70
6018;DHT22;3037;51.068;13.780;2022-08-21T15:27:45;26.30;14.60
6018;DHT22;3037;51.068;13.780;2022-08-21T15:30:11;26.00;13.80
6018;DHT22;3037;51.068;13.780;2022-08-21T15:32:37;25.70;13.30
6018;DHT22;3037;51.068;13.780;2022-08-21T15:35:03;25.70;12.10
6018;DHT22;3037;51.068;13.780;2022-08-21T15:37:29;25.50;12.20
6018;DHT22;3037;51.068;13.780;2022-08-21T15:39:54;25.90;13.60
6018;DHT22;3037;51.068;13.780;2022-08-21T15:42:21;25.80;14.20
6018;DHT22;3037;51.068;13.780;2022-08-21T15:44:47;25.80;13.20
6018;DHT22;3037;51.068;13.780;2022-08-21T15:47:16;25.80;13.40
6018;DHT22;3037;51.068;13.780;2022-08-21T15:49:42;25.70;12.80
6018;DHT22;3037;51.068;13.780;2022-08-21T15:52:11;25.70;14.50
6018;DHT22;3037;51.068;13.780;2022-08-21T15:54:37;25.70;12.70
6018;DHT22;3037;51.068;13.780;2022-08-21T15:57:02;25.60;12.80
6018;DHT22;3037;51.068;13.780;2022-08-21T15:59:29;25.70;15.00
6018;DHT22;3037;51.068;13.780;2022-08-21T16:01:57;25.70;13.90
6018;DHT22;3037;51.068;13.780;2022-08-21T16:04:27;25.70;14.50
6018;DHT22;3037;51.068;13.780;2022-08-21T16:06:53;25.60;14.40
6018;DHT22;3037;51.068;13.780;2022-08-21T16:09:19;25.30;14.40
6018;DHT22;3037;51.068;13.780;2022-08-21T16:11:44;25.10;15.20
6018;DHT22;3037;51.068;13.780;2022-08-21T16:14:12;24.90;14.40
6018;DHT22;3037;51.068;13.780;2022-08-21T16:16:39;24.70;14.20
6018;DHT22;3037;51.068;13.780;2022-08-21T16:19:05;24.60;14.30
6018;DHT22;3037;51.068;13.780;2022-08-21T16:21:34;24.40;18.60
6018;DHT22;3037;51.068;13.780;2022-08-21T16:24:00;24.20;16.70
6018;DHT22;3037;51.068;13.780;2022-08-21T16:26:27;23.70;17.20
6018;DHT22;3037;51.068;13.780;2022-08-21T16:28:54;23.50;19.10
6018;DHT22;3037;51.068;13.780;2022-08-21T16:31:23;23.40;19.50
6018;DHT22;3037;51.068;13.780;2022-08-21T16:33:51;22.80;19.90
6018;DHT22;3037;51.068;13.780;2022-08-21T16:36:17;22.80;19.50
6018;DHT22;3037;51.068;13.780;2022-08-21T16:38:43;22.60;21.10
6018;DHT22;3037;51.068;13.780;2022-08-21T16:41:11;22.50;22.90
6018;DHT22;3037;51.068;13.780;2022-08-21T16:43:39;22.30;24.60
6018;DHT22;3037;51.068;13.780;2022-08-21T16:46:07;22.20;25.30
6018;DHT22;3037;51.068;13.780;2022-08-21T16:48:33;22.00;26.10
6018;DHT22;3037;51.068;13.780;2022-08-21T16:50:58;21.90;26.30
6018;DHT22;3037;51.068;13.780;2022-08-21T16:53:24;21.80;27.80
6018;DHT22;3037;51.068;13.780;2022-08-21T16:55:50;21.60;29.10